createdAt,value
2018-09-05T00:02:25.958Z,16.33
2018-09-05T00:04:55.518Z,16.43
2018-09-05T00:07:24.215Z,16.40
2018-09-05T00:09:55.598Z,16.26
2018-09-05T00:12:24.171Z,16.08
2018-09-05T00:14:52.755Z,16.21
2018-09-05T00:17:21.408Z,16.14
2018-09-05T00:19:49.943Z,16.23
2018-09-05T00:22:18.620Z,16.18
2018-09-05T00:24:47.369Z,16.21
2018-09-05T00:27:16.254Z,16.00
2018-09-05T00:29:45.495Z,16.02
2018-09-05T00:32:14.044Z,15.93
2018-09-05T00:34:42.615Z,16.02
2018-09-05T00:37:11.926Z,15.93
2018-09-05T00:39:40.503Z,15.92
2018-09-05T00:42:09.082Z,15.93
2018-09-05T00:44:37.620Z,15.96
2018-09-05T00:47:06.211Z,16.53
2018-09-05T00:49:34.928Z,16.01
2018-09-05T00:52:03.474Z,15.96
2018-09-05T00:54:32.079Z,15.95
2018-09-05T00:57:00.611Z,15.82
2018-09-05T00:59:29.201Z,16.14
2018-09-05T01:01:57.759Z,16.17
2018-09-05T01:04:26.287Z,16.01
2018-09-05T01:06:55.120Z,15.77
2018-09-05T01:09:23.644Z,15.65
2018-09-05T01:11:53.135Z,15.83
2018-09-05T01:14:21.629Z,15.71
2018-09-05T01:16:50.879Z,15.69
2018-09-05T01:19:19.413Z,15.74
2018-09-05T01:21:48.926Z,15.55
2018-09-05T01:24:18.303Z,15.43
2018-09-05T01:26:47.667Z,15.42
2018-09-05T01:29:16.192Z,15.51
2018-09-05T01:31:44.808Z,15.50
2018-09-05T01:34:14.002Z,15.61
2018-09-05T01:36:42.527Z,15.68
2018-09-05T01:39:11.179Z,15.52
2018-09-05T01:41:39.801Z,15.63
2018-09-05T01:44:09.348Z,15.68
2018-09-05T01:46:37.823Z,15.99
2018-09-05T01:49:07.143Z,15.76
2018-09-05T01:51:36.121Z,15.80
2018-09-05T01:54:05.879Z,15.73
2018-09-05T01:56:34.407Z,15.82
2018-09-05T01:59:02.939Z,15.77
2018-09-05T02:01:31.494Z,15.73
2018-09-05T02:04:00.596Z,15.75
2018-09-05T02:06:29.201Z,15.78
2018-09-05T02:08:57.722Z,15.71
2018-09-05T02:11:26.831Z,15.74
2018-09-05T02:13:55.444Z,16.11
2018-09-05T02:16:23.986Z,16.23
2018-09-05T02:18:53.236Z,16.09
2018-09-05T02:21:21.805Z,16.19
2018-09-05T02:23:50.310Z,16.02
2018-09-05T02:26:18.919Z,15.93
2018-09-05T02:28:47.463Z,15.82
2018-09-05T02:31:16.039Z,15.74
2018-09-05T02:33:44.567Z,15.90
2018-09-05T02:36:13.172Z,15.80
2018-09-05T02:38:42.914Z,15.71
2018-09-05T02:41:11.465Z,15.75
2018-09-05T02:43:45.204Z,15.68
2018-09-05T02:46:13.812Z,15.71
2018-09-05T02:48:42.406Z,15.70
2018-09-05T02:51:11.019Z,15.63
2018-09-05T02:53:39.540Z,15.67
2018-09-05T02:56:08.115Z,16.29
2018-09-05T02:58:36.662Z,16.03
2018-09-05T03:01:05.369Z,15.86
2018-09-05T03:03:33.898Z,15.92
2018-09-05T03:06:02.472Z,15.77
2018-09-05T03:08:31.014Z,15.71
2018-09-05T03:10:59.604Z,15.63
2018-09-05T03:13:28.079Z,15.58
2018-09-05T03:15:56.833Z,15.61
2018-09-05T03:18:25.332Z,15.78
2018-09-05T03:20:53.892Z,15.66
2018-09-05T03:23:23.088Z,15.72
2018-09-05T03:25:51.648Z,15.84
2018-09-05T03:28:20.895Z,15.66
2018-09-05T03:30:49.452Z,15.62
2018-09-05T03:33:18.061Z,15.83
2018-09-05T03:35:46.608Z,15.84
2018-09-05T03:38:15.121Z,15.82
2018-09-05T03:40:43.741Z,15.65
2018-09-05T03:43:12.256Z,15.55
2018-09-05T03:45:40.863Z,15.57
2018-09-05T03:48:09.423Z,15.53
2018-09-05T03:50:38.047Z,15.54
2018-09-05T03:53:06.546Z,15.63
2018-09-05T03:55:35.120Z,15.82
2018-09-05T03:58:03.730Z,15.81
2018-09-05T04:00:35.145Z,15.76
2018-09-05T04:03:04.600Z,15.62
2018-09-05T04:05:33.240Z,15.57
2018-09-05T04:08:02.344Z,15.58
2018-09-05T04:10:31.011Z,15.61
2018-09-05T04:12:59.640Z,15.65
2018-09-05T04:15:28.364Z,15.81
2018-09-05T04:17:56.832Z,15.53
2018-09-05T04:20:25.349Z,15.57
2018-09-05T04:22:53.839Z,15.52
2018-09-05T04:25:22.719Z,15.96
2018-09-05T04:27:51.209Z,15.77
2018-09-05T04:30:19.877Z,15.64
2018-09-05T04:32:48.353Z,15.66
2018-09-05T04:35:16.914Z,15.59
2018-09-05T04:37:45.482Z,15.64
2018-09-05T04:40:14.125Z,15.59
2018-09-05T04:42:42.749Z,15.55
2018-09-05T04:45:11.351Z,15.47
2018-09-05T04:47:39.888Z,15.78
2018-09-05T04:50:08.511Z,16.19
2018-09-05T04:52:37.123Z,15.92
2018-09-05T04:55:06.238Z,15.76
2018-09-05T04:57:34.873Z,15.71
2018-09-05T05:00:03.539Z,15.81
2018-09-05T05:02:32.255Z,15.70
2018-09-05T05:05:01.765Z,15.62
2018-09-05T05:07:30.314Z,15.94
2018-09-05T05:09:58.853Z,15.87
2018-09-05T05:12:27.396Z,15.86
2018-09-05T05:14:56.026Z,15.97
2018-09-05T05:17:24.611Z,15.98
2018-09-05T05:19:53.125Z,16.00
2018-09-05T05:22:21.675Z,16.11
2018-09-05T05:24:50.154Z,16.34
2018-09-05T05:27:18.794Z,16.44
2018-09-05T05:29:47.329Z,16.45
2018-09-05T05:32:15.866Z,16.50
2018-09-05T05:34:44.501Z,16.69
2018-09-05T05:37:13.142Z,16.69
2018-09-05T05:39:41.701Z,16.67
2018-09-05T05:42:10.308Z,16.80
2018-09-05T05:44:38.877Z,16.91
2018-09-05T05:47:07.456Z,17.30
2018-09-05T05:49:36.060Z,17.19
2018-09-05T05:52:04.602Z,17.15
2018-09-05T05:54:33.187Z,17.17
2018-09-05T05:57:01.805Z,17.26
2018-09-05T05:59:30.600Z,17.34
2018-09-05T06:01:59.327Z,17.56
2018-09-05T06:04:27.796Z,17.67
2018-09-05T06:06:57.039Z,17.87
2018-09-05T06:09:25.536Z,18.19
2018-09-05T06:11:54.103Z,18.48
2018-09-05T06:14:22.952Z,18.19
2018-09-05T06:16:51.454Z,18.30
2018-09-05T06:19:20.024Z,18.30
2018-09-05T06:21:48.675Z,18.45
2018-09-05T06:24:17.352Z,18.66
2018-09-05T06:26:45.895Z,18.50
2018-09-05T06:29:14.487Z,18.30
2018-09-05T06:31:43.115Z,18.48
2018-09-05T06:34:11.764Z,18.85
2018-09-05T06:36:40.251Z,18.93
2018-09-05T06:39:10.124Z,18.92
2018-09-05T06:41:38.956Z,19.38
2018-09-05T06:44:07.762Z,19.69
2018-09-05T06:46:36.261Z,19.29
2018-09-05T06:49:04.795Z,19.31
2018-09-05T06:51:33.390Z,19.71
2018-09-05T06:54:01.928Z,19.75
2018-09-05T06:56:30.520Z,19.97
2018-09-05T06:58:59.113Z,20.25
2018-09-05T07:01:27.699Z,20.07
2018-09-05T07:03:56.381Z,20.16
2018-09-05T07:06:24.935Z,20.24
2018-09-05T07:08:53.560Z,20.85
2018-09-05T07:11:22.071Z,21.70
2018-09-05T07:13:50.664Z,22.50
2018-09-05T07:16:19.352Z,22.17
2018-09-05T07:18:48.055Z,22.82
2018-09-05T07:21:16.712Z,23.10
2018-09-05T07:23:45.308Z,24.49
2018-09-05T07:26:13.850Z,23.33
2018-09-05T07:28:42.441Z,23.38
2018-09-05T07:31:11.056Z,24.66
2018-09-05T07:33:39.568Z,23.76
2018-09-05T07:36:08.126Z,24.11
2018-09-05T07:38:36.823Z,22.90
2018-09-05T07:41:05.734Z,22.04
2018-09-05T07:43:34.292Z,22.36
2018-09-05T07:46:02.858Z,22.88
2018-09-05T07:48:31.458Z,23.21
2018-09-05T07:51:00.068Z,23.33
2018-09-05T07:53:28.545Z,23.04
2018-09-05T07:55:57.156Z,23.38
2018-09-05T07:58:25.841Z,23.70
2018-09-05T08:00:54.362Z,24.99
2018-09-05T08:03:23.106Z,24.17
2018-09-05T08:05:51.844Z,25.10
2018-09-05T08:08:20.411Z,25.58
2018-09-05T08:10:49.053Z,26.50
2018-09-05T08:13:17.935Z,26.33
2018-09-05T08:15:46.540Z,25.88
2018-09-05T08:18:15.121Z,25.46
2018-09-05T08:20:45.090Z,26.44
2018-09-05T08:23:13.961Z,25.62
2018-09-05T08:25:42.514Z,25.81
2018-09-05T08:28:11.067Z,26.15
2018-09-05T08:30:39.595Z,25.98
2018-09-05T08:33:08.267Z,25.81
2018-09-05T08:35:37.058Z,25.54
2018-09-05T08:38:05.411Z,25.03
2018-09-05T08:40:34.044Z,26.04
2018-09-05T08:43:02.699Z,25.07
2018-09-05T08:45:31.546Z,24.53
2018-09-05T08:48:00.050Z,24.91
2018-09-05T08:50:28.653Z,24.72
2018-09-05T08:52:57.223Z,25.14
2018-09-05T08:55:25.867Z,24.93
2018-09-05T08:57:54.478Z,25.05
2018-09-05T09:00:23.637Z,25.43
2018-09-05T09:02:52.224Z,25.30
2018-09-05T09:05:20.773Z,25.32
2018-09-05T09:07:49.357Z,25.93
2018-09-05T09:10:18.018Z,26.10
2018-09-05T09:12:47.115Z,25.70
2018-09-05T09:15:15.727Z,25.73
2018-09-05T09:17:44.318Z,26.11
2018-09-05T09:20:12.931Z,25.36
2018-09-05T09:22:41.530Z,26.66
2018-09-05T09:25:09.940Z,26.69
2018-09-05T09:27:38.640Z,27.31
2018-09-05T09:30:07.801Z,26.64
2018-09-05T09:32:36.513Z,26.71
2018-09-05T09:35:05.136Z,26.84
2018-09-05T09:37:33.691Z,26.85
2018-09-05T09:40:03.152Z,27.23
2018-09-05T09:42:31.900Z,27.67
2018-09-05T09:45:00.451Z,27.65
2018-09-05T09:47:29.051Z,28.22
2018-09-05T09:49:57.637Z,28.64
2018-09-05T09:52:26.260Z,28.43
2018-09-05T09:54:54.826Z,28.06
2018-09-05T09:57:23.431Z,28.36
2018-09-05T09:59:51.979Z,28.68
2018-09-05T10:02:25.826Z,28.62
2018-09-05T10:04:59.758Z,28.97
2018-09-05T10:07:33.750Z,29.02
2018-09-05T10:11:07.267Z,28.97
2018-09-05T10:13:41.843Z,29.65
2018-09-05T10:16:15.439Z,29.65
2018-09-05T10:18:46.587Z,29.83
2018-09-05T10:21:15.906Z,29.58
2018-09-05T10:23:45.356Z,29.73
2018-09-05T10:26:14.623Z,29.75
2018-09-05T10:28:43.159Z,29.66
2018-09-05T10:31:11.739Z,29.99
2018-09-05T10:33:40.287Z,29.65
2018-09-05T10:36:08.837Z,29.90
2018-09-05T10:38:38.190Z,30.00
2018-09-05T10:41:06.752Z,29.59
2018-09-05T10:43:35.273Z,29.97
2018-09-05T10:46:03.929Z,29.46
2018-09-05T10:48:34.516Z,29.48
2018-09-05T10:51:03.066Z,28.76
2018-09-05T10:53:33.379Z,29.58
2018-09-05T10:56:02.184Z,29.43
2018-09-05T10:58:30.743Z,30.50
2018-09-05T11:00:59.359Z,29.38
2018-09-05T11:03:27.905Z,29.11
2018-09-05T11:05:56.892Z,29.01
2018-09-05T11:08:25.453Z,29.10
2018-09-05T11:10:54.111Z,28.48
2018-09-05T11:13:22.735Z,29.21
2018-09-05T11:15:51.284Z,29.60
2018-09-05T11:18:19.849Z,29.85
2018-09-05T11:20:49.136Z,29.99
2018-09-05T11:23:19.069Z,30.39
2018-09-05T11:25:47.706Z,29.84
2018-09-05T11:28:17.444Z,30.31
2018-09-05T11:30:46.584Z,30.28
2018-09-05T11:33:15.186Z,30.11
2018-09-05T11:35:43.743Z,30.37
2018-09-05T11:38:12.308Z,30.89
2018-09-05T11:40:40.946Z,31.28
2018-09-05T11:43:09.683Z,31.29
2018-09-05T11:45:38.222Z,31.59
2018-09-05T11:48:07.739Z,31.70
2018-09-05T11:50:36.318Z,31.28
2018-09-05T11:53:05.518Z,32.20
2018-09-05T11:55:34.144Z,31.77
2018-09-05T11:58:02.730Z,30.57
2018-09-05T12:00:31.338Z,30.73
2018-09-05T12:02:59.876Z,31.51
2018-09-05T12:05:28.478Z,31.48
2018-09-05T12:07:57.004Z,30.90
2018-09-05T12:10:25.597Z,30.88
2018-09-05T12:12:55.726Z,31.46
2018-09-05T12:15:24.302Z,31.86
2018-09-05T12:17:52.892Z,31.07
2018-09-05T12:20:21.508Z,30.90
2018-09-05T12:22:50.164Z,32.05
2018-09-05T12:25:18.666Z,30.77
2018-09-05T12:27:47.304Z,30.49
2018-09-05T12:30:16.034Z,31.22
2018-09-05T12:32:44.600Z,30.73
2018-09-05T12:35:13.314Z,31.04
2018-09-05T12:37:41.828Z,30.80
2018-09-05T12:40:10.490Z,31.30
2018-09-05T12:42:39.107Z,31.29
2018-09-05T12:45:08.546Z,31.48
2018-09-05T12:47:37.167Z,31.57
2018-09-05T12:50:05.843Z,30.84
2018-09-05T12:52:34.357Z,30.56
2018-09-05T12:55:03.807Z,32.17
2018-09-05T12:57:32.343Z,30.58
2018-09-05T13:00:00.975Z,30.57
2018-09-05T13:02:29.601Z,30.93
2018-09-05T13:04:58.179Z,30.82
2018-09-05T13:07:26.803Z,30.05
2018-09-05T13:09:55.366Z,30.12
2018-09-05T13:12:24.025Z,29.77
2018-09-05T13:14:52.683Z,29.43
2018-09-05T13:17:21.244Z,29.32
2018-09-05T13:19:49.949Z,29.29
2018-09-05T13:22:18.563Z,29.21
2018-09-05T13:24:47.253Z,29.08
2018-09-05T13:27:17.977Z,29.03
2018-09-05T13:29:46.479Z,29.97
2018-09-05T13:32:15.296Z,29.28
2018-09-05T13:34:43.848Z,29.97
2018-09-05T13:37:12.427Z,29.80
2018-09-05T13:39:42.033Z,29.50
2018-09-05T13:42:10.713Z,30.34
2018-09-05T13:44:39.619Z,30.11
2018-09-05T13:47:08.134Z,29.82
2018-09-05T13:49:36.712Z,29.69
2018-09-05T13:52:06.576Z,30.01
2018-09-05T13:54:36.627Z,29.85
2018-09-05T13:57:05.219Z,30.21
2018-09-05T13:59:35.143Z,30.19
2018-09-05T14:02:03.726Z,29.78
2018-09-05T14:04:32.792Z,29.96
2018-09-05T14:07:01.447Z,30.52
2018-09-05T14:09:29.983Z,30.20
2018-09-05T14:11:58.600Z,30.01
2018-09-05T14:14:28.255Z,29.69
2018-09-05T14:16:56.775Z,29.95
2018-09-05T14:19:25.371Z,29.79
2018-09-05T14:21:53.909Z,30.64
2018-09-05T14:24:22.858Z,29.71
2018-09-05T14:26:51.482Z,30.32
2018-09-05T14:29:20.120Z,30.50
2018-09-05T14:31:48.663Z,31.62
2018-09-05T14:34:17.175Z,32.42
2018-09-05T14:36:45.773Z,31.40
2018-09-05T14:39:23.199Z,30.55
2018-09-05T14:41:51.935Z,30.49
2018-09-05T14:44:20.465Z,31.07
2018-09-05T14:49:38.232Z,32.51
2018-09-05T14:54:55.779Z,33.36
2018-09-05T15:00:13.264Z,34.04
2018-09-05T15:05:30.791Z,32.86
2018-09-05T15:10:48.515Z,31.67
2018-09-05T15:16:06.151Z,30.25
2018-09-05T15:21:23.609Z,30.13
2018-09-05T15:26:41.121Z,30.50
2018-09-05T15:31:58.665Z,29.80
2018-09-05T15:37:17.070Z,30.72
2018-09-05T15:42:34.636Z,31.80
2018-09-05T15:47:52.139Z,30.15
2018-09-05T15:53:10.426Z,29.79
2018-09-05T15:58:28.099Z,29.96
2018-09-05T16:03:45.680Z,30.46
2018-09-05T16:09:05.962Z,30.28
2018-09-05T16:14:23.451Z,30.01
2018-09-05T16:19:40.873Z,28.53
2018-09-05T16:24:58.335Z,28.07
2018-09-05T16:30:15.819Z,27.71
2018-09-05T16:35:33.899Z,27.72
2018-09-05T16:40:52.895Z,27.26
2018-09-05T16:46:11.157Z,26.50
2018-09-05T16:51:28.606Z,26.19
2018-09-05T16:56:46.982Z,25.26
2018-09-05T17:02:04.461Z,25.49
2018-09-05T17:07:21.976Z,24.62
2018-09-05T17:12:39.568Z,24.14
2018-09-05T17:17:57.147Z,23.94
2018-09-05T17:23:14.798Z,23.48
2018-09-05T17:28:33.005Z,22.77
2018-09-05T17:33:51.274Z,22.37
2018-09-05T17:39:10.318Z,22.53
2018-09-05T17:44:27.837Z,22.55
2018-09-05T17:49:45.307Z,22.04
2018-09-05T17:55:03.492Z,22.03
2018-09-05T18:00:21.052Z,21.57
2018-09-05T18:05:38.565Z,21.05
2018-09-05T18:10:56.801Z,21.32
2018-09-05T18:16:14.500Z,20.87
2018-09-05T18:21:31.914Z,20.04
2018-09-05T18:26:50.162Z,20.49
2018-09-05T18:32:07.681Z,20.50
2018-09-05T18:37:25.226Z,20.19
2018-09-05T18:42:43.514Z,19.99
2018-09-05T18:48:01.000Z,19.43
2018-09-05T18:53:19.087Z,19.13
2018-09-05T18:58:37.045Z,18.99
2018-09-05T19:03:54.604Z,18.73
2018-09-05T19:09:12.683Z,18.49
2018-09-05T19:14:30.171Z,18.74
2018-09-05T19:19:47.657Z,18.46
2018-09-05T19:25:05.228Z,18.04
2018-09-05T19:30:22.762Z,17.74
2018-09-05T19:35:41.467Z,18.16
2018-09-05T19:40:59.022Z,17.95
2018-09-05T19:46:16.577Z,18.24
2018-09-05T19:51:34.067Z,18.29
2018-09-05T19:56:52.271Z,17.79
2018-09-05T20:02:09.738Z,17.82
2018-09-05T20:07:27.292Z,17.54
2018-09-05T20:12:44.693Z,17.53
2018-09-05T20:18:02.187Z,17.07
2018-09-05T20:23:19.776Z,17.47
2018-09-05T20:28:37.855Z,17.36
2018-09-05T20:33:56.109Z,16.91
2018-09-05T20:39:13.653Z,16.90
2018-09-05T20:44:31.212Z,17.08
2018-09-05T20:49:48.725Z,17.63
2018-09-05T20:55:06.240Z,17.05
2018-09-05T21:00:23.803Z,16.84
2018-09-05T21:05:41.324Z,16.77
2018-09-05T21:10:58.799Z,16.59
2018-09-05T21:16:17.899Z,16.98
2018-09-05T21:21:36.011Z,17.00
2018-09-05T21:26:53.562Z,17.06
2018-09-05T21:32:11.788Z,17.03
2018-09-05T21:37:29.877Z,16.88
2018-09-05T21:42:47.323Z,16.91
2018-09-05T21:48:04.853Z,17.57
2018-09-05T21:53:22.357Z,17.13
2018-09-05T21:58:41.736Z,17.04
2018-09-05T22:03:59.960Z,17.22
2018-09-05T22:09:17.393Z,17.19
2018-09-05T22:14:35.582Z,16.99
2018-09-05T22:19:53.027Z,16.94
2018-09-05T22:25:10.973Z,17.01
2018-09-05T22:30:28.480Z,17.03
2018-09-05T22:35:46.911Z,17.09
2018-09-05T22:41:04.390Z,16.93
2018-09-05T22:47:35.013Z,17.07
2018-09-05T22:53:14.561Z,17.09
2018-09-05T22:58:44.373Z,17.07
2018-09-05T23:06:21.927Z,17.01
2018-09-05T23:11:52.530Z,17.03
2018-09-05T23:18:24.496Z,17.14
2018-09-05T23:30:06.329Z,17.75
